Airfield :
LOGIN :

Register | Disclaimer

   EN    FR    IT 

 










Legend :    VFR   Marginal VFR   IFR   Intensive IFR   Very Intensive IFR
Visi :
Ceiling :
>= 8 km
>= 3000ft
5 to 8 km
1000 to 3000 ft
1500m to 5 km
500 to 1000 ft
800 to 1500m
200 to 500 ft
< 800m
< 200 ft
Symbols :   Thunderstorms  Fog  Heavy snow  Heavy precipitations  Wind > 20 kt
SIGMETs :     Misc.  Thunderstorms  Icing  Turbulence  Mountain Waves  Volcanic Ashes







- Airport Elevation : 74 ft
- IATA code : EIN


EHEH - Eindhoven

CURRENT METAR :
  • 190917Z AUTO 05014KT 360V080 9999 SCT016 06/03 Q1021 WHT 05014KT 9999 SCT015 BKN025

EXPIRED METARs :
  • 190855Z AUTO 04014KT 350V090 9999 SCT015 OVC018 06/03 Q1021 WHT 03012KT 9999 SCT014 BKN020 BKN025
  • 190848Z AUTO 04014KT 350V090 9999 FEW013 BKN016 OVC019 06/03 Q1021 WHT 03012KT 9999 SCT014 BKN020 BKN025
  • 190839Z AUTO 04013KT 360V080 9999 FEW013 BKN015 OVC019 06/03 Q1021 WHT 03012KT 9999 SCT014 BKN020 BKN025
  • 190829Z AUTO 04014KT 360V080 9999 SCT014 BKN016 OVC020 06/03 Q1021 GRN 03012KT 9999 SCT014 BKN020 BKN025
  • 190807Z AUTO 04012KT 010V070 9999 SCT015 BKN020 BKN024 05/03 Q1021 WHT 03012KT 9999 SCT014 BKN020 BKN025
  • 190755Z AUTO 04010KT 010V080 9999 FEW012 OVC058 05/03 Q1021 BLU 03012KT 9999 SCT014 BKN020 BKN025
  • 190748Z AUTO 04010KT 010V070 9999 FEW012 SCT014 BKN016 05/03 Q1021 GRN 03012KT 9999 SCT014 BKN020 BKN025
  • 190738Z AUTO 04010KT 360V080 9999 FEW011 BKN015 OVC020 05/03 Q1021 WHT 03012KT 9999 SCT014 BKN020 BKN025
  • 190725Z AUTO 04010KT 010V090 9999 FEW011 BKN014 OVC016 05/03 Q1022 GRN 03012KT 9999 SCT014 BKN020 BKN025
  • 190712Z AUTO 05011KT 010V070 9999 SCT014 BKN017 OVC020 05/03 Q1022 GRN 03012KT 9999 SCT014 BKN020 BKN025
  • 190703Z AUTO 05012KT 010V070 9999 FEW012 SCT016 OVC020 05/02 Q1022 WHT 03012KT 9999 SCT014 BKN020 BKN025
  • 190655Z AUTO 04012KT 9999 FEW012 BKN015 OVC019 05/03 Q1022 WHT 03012KT 9999 SCT014 BKN020 BKN025
  • 190643Z AUTO 04011KT 9999 FEW013 BKN016 OVC019 05/02 Q1022 WHT 03012KT 9999 SCT014 BKN020 BKN025
  • 190625Z AUTO 04010KT 360V070 9999 FEW014 BKN016 OVC021 05/03 Q1022 WHT 03012KT 9999 SCT014 BKN020 BKN025

TAF TAF EHEH
Valid from the 19 at 06:00 until the 20 at 12:00 UTC


190426Z 1906/2012 04010KT 9999 SCT015 BKN020
PROB40
TEMPO 1906/1910 FEW008 BKN012 BKN020
BECMG 1909/1911 06015G25KT
No reported NOTAMs for that airfield.



MET'MAP, your aeronautical weather chart ! - Copyright ORBIFLY December 2007 - Disclaimer

ORBIFLY MET'MAP TEAM :

Programming & Development : Alexandra Zaïnal
Concept & Development : Baudouin d'Aumeries
Co-Development & Prog : Marc-Olivier Méhu
Technical & hardware support : Manuel Goepfert

Contact : metmap@orbifly.com




SOURCES & CREDITS :

   NOAA